Time;durP1;ratioP1;P1;durP2;ratioP2;P2;SDS_P1;SDS_P2;PMS_P1;PMS_P2;Temp;Humidity;BMP_temperature;BMP_pressure;BME280_temperature;BME280_humidity;BME280_pressure;Samples;Min_cycle;Max_cycle;Signal;HPM_P1;HPM_P2
2022/04/24 00:01:11;;;;;;;15.15;2.88;;;;;;;;;;5072234;28;20029;-65
2022/04/24 00:03:37;;;;;;;9.77;2.80;;;;;;;;;;5072849;28;20025;-66
2022/04/24 00:06:02;;;;;;;11.50;3.40;;;;;;;;;;5072611;28;20064;-65
2022/04/24 00:08:28;;;;;;;18.85;3.10;;;;;;;;;;5072620;28;20020;-65
2022/04/24 00:10:53;;;;;;;12.15;3.10;;;;;;;;;;5072418;28;20103;-66
2022/04/24 00:13:19;;;;;;;10.07;2.60;;;;;;;;;;5071987;28;20036;-65
2022/04/24 00:15:44;;;;;;;7.60;2.30;;;;;;;;;;5072274;28;20074;-65
2022/04/24 00:18:10;;;;;;;10.63;2.70;;;;;;;;;;5072746;28;20385;-67
2022/04/24 00:20:35;;;;;;;14.10;2.58;;;;;;;;;;5072719;28;20133;-66
2022/04/24 00:23:01;;;;;;;10.05;2.45;;;;;;;;;;5072393;28;20070;-65
2022/04/24 00:25:26;;;;;;;9.07;2.88;;;;;;;;;;5072418;28;20388;-65
2022/04/24 00:27:52;;;;;;;15.38;2.60;;;;;;;;;;5072080;28;20031;-68
2022/04/24 00:30:20;;;;;;;13.10;2.92;;;;;;;;;;5072149;28;20104;-65
2022/04/24 00:32:45;;;;;;;9.73;2.10;;;;;;;;;;5072064;28;20064;-65
2022/04/24 00:35:11;;;;;;;12.52;2.67;;;;;;;;;;5072312;28;20120;-65
2022/04/24 00:37:36;;;;;;;11.57;2.60;;;;;;;;;;5072776;28;20024;-64
2022/04/24 00:40:02;;;;;;;13.95;2.50;;;;;;;;;;5071667;28;20045;-65
2022/04/24 00:42:29;;;;;;;20.25;2.75;;;;;;;;;;5072368;28;20016;-66
2022/04/24 00:44:55;;;;;;;11.27;2.25;;;;;;;;;;5071813;28;20425;-65
2022/04/24 00:47:22;;;;;;;21.77;2.58;;;;;;;;;;5071795;28;20059;-66
2022/04/24 00:49:48;;;;;;;17.33;3.22;;;;;;;;;;5071455;28;20020;-65
2022/04/24 00:52:14;;;;;;;12.60;2.17;;;;;;;;;;5071857;28;20406;-66
2022/04/24 00:54:41;;;;;;;13.48;2.30;;;;;;;;;;5071776;28;20025;-66
2022/04/24 00:57:10;;;;;;;19.77;2.97;;;;;;;;;;5071663;28;20108;-66
2022/04/24 00:59:39;;;;;;;19.77;2.25;;;;;;;;;;5071293;28;20027;-65
2022/04/24 01:02:06;;;;;;;11.50;2.38;;;;;;;;;;5071389;28;20028;-66
2022/04/24 01:04:34;;;;;;;18.20;3.05;;;;;;;;;;5071357;28;20086;-65
2022/04/24 01:07:00;;;;;;;15.07;2.50;;;;;;;;;;5071360;28;20024;-65
2022/04/24 01:09:26;;;;;;;13.02;2.45;;;;;;;;;;5071352;28;20031;-65
2022/04/24 01:11:54;;;;;;;10.98;2.28;;;;;;;;;;5071438;28;20552;-65
2022/04/24 01:14:22;;;;;;;13.60;2.38;;;;;;;;;;5071254;28;20032;-65
2022/04/24 01:16:48;;;;;;;17.58;2.65;;;;;;;;;;5071238;28;20059;-66
2022/04/24 01:19:16;;;;;;;12.90;2.05;;;;;;;;;;5070948;28;20024;-66
2022/04/24 01:21:43;;;;;;;10.30;1.98;;;;;;;;;;5071030;28;20040;-65
2022/04/24 01:24:10;;;;;;;11.85;2.33;;;;;;;;;;5070753;28;20020;-65
2022/04/24 01:26:36;;;;;;;11.70;2.03;;;;;;;;;;5070644;28;20496;-71
2022/04/24 01:29:04;;;;;;;17.40;2.25;;;;;;;;;;5071161;28;20052;-65
2022/04/24 01:31:29;;;;;;;19.08;2.58;;;;;;;;;;5070773;28;20012;-65
2022/04/24 01:33:55;;;;;;;15.88;2.20;;;;;;;;;;5071190;28;20024;-66
2022/04/24 01:36:20;;;;;;;13.27;1.83;;;;;;;;;;5070853;28;20478;-66
2022/04/24 01:38:46;;;;;;;17.23;2.30;;;;;;;;;;5070964;28;20468;-65
2022/04/24 01:41:11;;;;;;;13.43;2.17;;;;;;;;;;5070569;28;20059;-65
2022/04/24 01:43:37;;;;;;;16.23;2.20;;;;;;;;;;5070684;28;20048;-66
2022/04/24 01:46:06;;;;;;;14.77;2.38;;;;;;;;;;5070573;28;20043;-65
2022/04/24 01:48:35;;;;;;;12.32;1.92;;;;;;;;;;5071051;28;20032;-66
2022/04/24 01:51:04;;;;;;;11.35;2.15;;;;;;;;;;5070489;28;20033;-67
2022/04/24 01:53:30;;;;;;;9.48;1.83;;;;;;;;;;5070540;28;20377;-65
2022/04/24 01:56:00;;;;;;;9.70;1.67;;;;;;;;;;5070507;28;20119;-66
2022/04/24 01:58:26;;;;;;;9.80;2.05;;;;;;;;;;5070231;28;20583;-66
2022/04/24 02:00:53;;;;;;;11.98;2.10;;;;;;;;;;5069937;28;20028;-65
2022/04/24 02:03:19;;;;;;;10.80;1.88;;;;;;;;;;5070446;28;20400;-68
2022/04/24 02:05:45;;;;;;;10.82;1.98;;;;;;;;;;5070490;28;20101;-66
2022/04/24 02:08:11;;;;;;;8.32;1.90;;;;;;;;;;5070419;28;20028;-65
2022/04/24 02:10:36;;;;;;;8.95;1.77;;;;;;;;;;5070171;28;20098;-66
2022/04/24 02:13:02;;;;;;;11.32;1.77;;;;;;;;;;5070186;28;20468;-65
2022/04/24 02:15:28;;;;;;;9.40;1.55;;;;;;;;;;5069963;28;20392;-66
2022/04/24 02:17:55;;;;;;;9.73;1.95;;;;;;;;;;5070317;28;20056;-66
2022/04/24 02:20:20;;;;;;;11.75;2.20;;;;;;;;;;5070082;28;20040;-67
2022/04/24 02:22:46;;;;;;;8.57;1.60;;;;;;;;;;5070158;28;20028;-67
2022/04/24 02:25:11;;;;;;;10.70;1.70;;;;;;;;;;5052176;28;20483;-65
2022/04/24 02:27:37;;;;;;;7.32;1.70;;;;;;;;;;5070538;28;20024;-66
2022/04/24 02:30:03;;;;;;;8.57;1.90;;;;;;;;;;5069731;28;20454;-66
2022/04/24 02:32:28;;;;;;;11.57;2.55;;;;;;;;;;5070017;28;20028;-67
2022/04/24 02:34:54;;;;;;;7.38;1.58;;;;;;;;;;5052131;28;20391;-66
2022/04/24 02:37:19;;;;;;;7.60;1.75;;;;;;;;;;5069911;28;20365;-68
2022/04/24 02:39:45;;;;;;;8.25;1.70;;;;;;;;;;5069629;28;20056;-68
2022/04/24 02:42:12;;;;;;;8.88;1.88;;;;;;;;;;5069893;28;20029;-66
2022/04/24 02:44:37;;;;;;;9.00;1.90;;;;;;;;;;5069824;28;20028;-66
2022/04/24 02:47:03;;;;;;;10.95;1.92;;;;;;;;;;5069747;28;20032;-67
2022/04/24 02:49:28;;;;;;;7.88;1.70;;;;;;;;;;5069515;28;20060;-67
2022/04/24 02:51:54;;;;;;;10.32;1.70;;;;;;;;;;5069826;28;20032;-65
2022/04/24 02:54:19;;;;;;;7.70;1.73;;;;;;;;;;5069683;28;20473;-66
2022/04/24 02:56:44;;;;;;;9.77;1.85;;;;;;;;;;5069855;28;20021;-66
2022/04/24 02:59:11;;;;;;;7.97;1.90;;;;;;;;;;5069657;28;20028;-68
2022/04/24 03:01:38;;;;;;;9.13;1.90;;;;;;;;;;5069894;28;20056;-65
2022/04/24 03:04:04;;;;;;;7.28;1.90;;;;;;;;;;5069542;28;20109;-65
2022/04/24 03:06:30;;;;;;;6.78;1.90;;;;;;;;;;5069608;28;20049;-65
2022/04/24 03:08:55;;;;;;;11.15;1.90;;;;;;;;;;5070029;28;20068;-66
2022/04/24 03:11:21;;;;;;;7.53;1.90;;;;;;;;;;5070001;28;20063;-65
2022/04/24 03:13:46;;;;;;;8.48;1.75;;;;;;;;;;5069802;28;20028;-65
2022/04/24 03:16:12;;;;;;;8.90;1.70;;;;;;;;;;5069418;28;20033;-66
2022/04/24 03:18:37;;;;;;;6.72;1.42;;;;;;;;;;5069841;28;20130;-67
2022/04/24 03:21:03;;;;;;;7.93;1.58;;;;;;;;;;5069216;28;20464;-66
2022/04/24 03:23:28;;;;;;;7.60;1.63;;;;;;;;;;5069386;28;20036;-65
2022/04/24 03:25:54;;;;;;;9.05;1.50;;;;;;;;;;5069353;28;20039;-66
2022/04/24 03:28:19;;;;;;;7.18;1.77;;;;;;;;;;5069577;28;20487;-65
2022/04/24 03:30:45;;;;;;;5.68;1.40;;;;;;;;;;5069353;28;20252;-69
2022/04/24 03:33:11;;;;;;;4.65;1.20;;;;;;;;;;5069411;28;20024;-65
2022/04/24 03:35:36;;;;;;;5.10;1.40;;;;;;;;;;5069629;28;20028;-66
2022/04/24 03:38:02;;;;;;;10.32;1.75;;;;;;;;;;5069372;28;20031;-66
2022/04/24 03:40:28;;;;;;;7.18;1.50;;;;;;;;;;5068894;28;20500;-70
2022/04/24 03:42:54;;;;;;;7.47;1.58;;;;;;;;;;5069374;28;20263;-66
2022/04/24 03:45:19;;;;;;;6.93;1.60;;;;;;;;;;5069192;28;20069;-65
2022/04/24 03:47:47;;;;;;;4.68;1.35;;;;;;;;;;5069750;28;20486;-70
2022/04/24 03:50:12;;;;;;;7.60;1.65;;;;;;;;;;5072731;28;20103;-66
2022/04/24 03:52:38;;;;;;;8.15;1.60;;;;;;;;;;5072957;28;20150;-66
2022/04/24 03:55:03;;;;;;;6.90;1.60;;;;;;;;;;5072772;28;20024;-68
2022/04/24 03:57:30;;;;;;;5.22;1.65;;;;;;;;;;5072688;28;20150;-66
2022/04/24 03:59:56;;;;;;;5.57;1.52;;;;;;;;;;5072463;28;20017;-66
2022/04/24 04:02:21;;;;;;;7.32;1.40;;;;;;;;;;5072583;28;20047;-65
2022/04/24 04:04:46;;;;;;;10.05;1.88;;;;;;;;;;5072848;28;20031;-70
2022/04/24 04:07:12;;;;;;;7.95;1.83;;;;;;;;;;5072641;28;20021;-66
2022/04/24 04:09:38;;;;;;;8.70;1.75;;;;;;;;;;5072641;28;20025;-67
2022/04/24 04:12:06;;;;;;;8.27;1.85;;;;;;;;;;5072256;28;20138;-64
2022/04/24 04:14:31;;;;;;;8.95;2.05;;;;;;;;;;5072320;28;20016;-65
2022/04/24 04:16:56;;;;;;;9.52;1.98;;;;;;;;;;5072291;28;20017;-69
2022/04/24 04:19:22;;;;;;;9.60;2.05;;;;;;;;;;5072738;28;20036;-67
2022/04/24 04:21:48;;;;;;;11.57;2.10;;;;;;;;;;5072294;28;20028;-67
2022/04/24 04:24:14;;;;;;;12.52;2.03;;;;;;;;;;5072165;28;20561;-65
2022/04/24 04:26:39;;;;;;;7.22;1.60;;;;;;;;;;5072391;28;20024;-65
2022/04/24 04:29:05;;;;;;;9.70;1.67;;;;;;;;;;5071994;28;20025;-71
2022/04/24 04:31:30;;;;;;;12.43;1.98;;;;;;;;;;5071785;28;20104;-66
2022/04/24 04:33:56;;;;;;;6.47;1.60;;;;;;;;;;5072030;28;20111;-65
2022/04/24 04:36:21;;;;;;;7.80;1.77;;;;;;;;;;5072056;28;20024;-67
2022/04/24 04:38:46;;;;;;;6.50;1.40;;;;;;;;;;5072151;28;20029;-65
2022/04/24 04:41:12;;;;;;;9.80;1.55;;;;;;;;;;5071558;28;20098;-66
2022/04/24 04:43:38;;;;;;;8.82;1.80;;;;;;;;;;5072395;28;20139;-65
2022/04/24 04:46:03;;;;;;;7.22;1.70;;;;;;;;;;5071759;28;20547;-64
2022/04/24 04:48:29;;;;;;;11.10;2.00;;;;;;;;;;5071752;28;20078;-65
2022/04/24 04:50:55;;;;;;;13.10;2.28;;;;;;;;;;5071402;28;20036;-65
2022/04/24 04:53:21;;;;;;;11.43;1.83;;;;;;;;;;5071655;28;20049;-65
2022/04/24 04:55:47;;;;;;;8.70;1.90;;;;;;;;;;5071742;28;20125;-68
2022/04/24 04:58:13;;;;;;;8.95;1.77;;;;;;;;;;5072011;28;20115;-66
2022/04/24 05:00:38;;;;;;;7.93;1.60;;;;;;;;;;5071395;28;20028;-66
2022/04/24 05:03:04;;;;;;;7.20;1.63;;;;;;;;;;5071531;28;20271;-70
2022/04/24 05:05:29;;;;;;;9.77;1.75;;;;;;;;;;5071491;28;20078;-68
2022/04/24 05:07:54;;;;;;;7.50;1.80;;;;;;;;;;5071388;28;20029;-66
2022/04/24 05:10:20;;;;;;;9.43;1.80;;;;;;;;;;5071362;28;20012;-65
2022/04/24 05:12:45;;;;;;;6.38;1.38;;;;;;;;;;5071444;28;20044;-65
2022/04/24 05:15:13;;;;;;;10.70;1.48;;;;;;;;;;5071330;28;20256;-65
2022/04/24 05:17:40;;;;;;;7.20;1.48;;;;;;;;;;5071340;28;20029;-67
2022/04/24 05:20:07;;;;;;;9.95;2.45;;;;;;;;;;5071242;28;20025;-65
2022/04/24 05:22:33;;;;;;;7.03;1.60;;;;;;;;;;5070839;28;20027;-68
2022/04/24 05:24:59;;;;;;;7.25;1.50;;;;;;;;;;5071004;28;20025;-65
2022/04/24 05:27:24;;;;;;;5.55;1.50;;;;;;;;;;5071070;28;20063;-67
2022/04/24 05:29:50;;;;;;;8.00;1.88;;;;;;;;;;5071091;28;20097;-67
2022/04/24 05:32:16;;;;;;;7.30;1.45;;;;;;;;;;5053006;28;20495;-65
2022/04/24 05:34:41;;;;;;;8.40;1.60;;;;;;;;;;5071113;28;20523;-65
2022/04/24 05:37:08;;;;;;;3.47;1.38;;;;;;;;;;5070837;28;20032;-70
2022/04/24 05:39:34;;;;;;;6.63;1.90;;;;;;;;;;5070736;28;20029;-68
2022/04/24 05:41:59;;;;;;;7.15;1.70;;;;;;;;;;5070171;28;20085;-65
2022/04/24 05:44:25;;;;;;;8.20;2.05;;;;;;;;;;5070676;28;20039;-67
2022/04/24 05:46:51;;;;;;;5.55;1.70;;;;;;;;;;5070664;28;20032;-68
2022/04/24 05:49:17;;;;;;;8.48;1.80;;;;;;;;;;5070770;28;20025;-68
2022/04/24 05:51:42;;;;;;;9.27;2.30;;;;;;;;;;5070516;28;20423;-66
2022/04/24 05:54:09;;;;;;;6.82;1.90;;;;;;;;;;5070415;28;20044;-68
2022/04/24 05:56:34;;;;;;;8.40;2.13;;;;;;;;;;5070878;28;20103;-65
2022/04/24 05:59:00;;;;;;;5.63;1.85;;;;;;;;;;5070455;28;20100;-70
2022/04/24 06:01:25;;;;;;;9.60;2.17;;;;;;;;;;5070079;28;20495;-69
2022/04/24 06:03:50;;;;;;;7.20;2.38;;;;;;;;;;5070521;28;20043;-71
2022/04/24 06:06:16;;;;;;;9.15;2.00;;;;;;;;;;5070395;28;20078;-66
2022/04/24 06:08:43;;;;;;;9.32;1.70;;;;;;;;;;5070492;28;20430;-65
2022/04/24 06:11:09;;;;;;;6.22;1.98;;;;;;;;;;5069787;28;20028;-66
2022/04/24 06:13:34;;;;;;;6.93;1.90;;;;;;;;;;5070502;28;20029;-65
2022/04/24 06:15:59;;;;;;;7.93;2.15;;;;;;;;;;5070217;28;20028;-71
2022/04/24 06:18:26;;;;;;;10.18;2.15;;;;;;;;;;5070197;28;20028;-67
2022/04/24 06:20:52;;;;;;;6.38;2.00;;;;;;;;;;5070090;28;20033;-65
2022/04/24 06:23:18;;;;;;;8.30;2.65;;;;;;;;;;5070078;28;20027;-66
2022/04/24 06:25:43;;;;;;;9.00;2.40;;;;;;;;;;5070266;28;20082;-66
2022/04/24 06:28:09;;;;;;;7.13;1.90;;;;;;;;;;5070214;28;20060;-65
2022/04/24 06:30:40;;;;;;;7.78;1.80;;;;;;;;;;5070043;28;20372;-66
2022/04/24 06:33:10;;;;;;;6.57;1.98;;;;;;;;;;5070298;28;20025;-67
2022/04/24 06:35:36;;;;;;;8.93;1.58;;;;;;;;;;5069952;28;20365;-65
2022/04/24 06:38:02;;;;;;;7.65;1.77;;;;;;;;;;5069957;28;20082;-66
2022/04/24 06:40:27;;;;;;;6.18;1.85;;;;;;;;;;5069902;28;20049;-66
2022/04/24 06:42:54;;;;;;;8.45;1.60;;;;;;;;;;5069794;28;20052;-67
2022/04/24 06:45:29;;;;;;;5.85;1.60;;;;;;;;;;5070088;28;20453;-72
2022/04/24 06:47:56;;;;;;;7.15;1.60;;;;;;;;;;5069896;28;20061;-68
2022/04/24 06:50:24;;;;;;;5.43;1.52;;;;;;;;;;5069703;28;20021;-70
2022/04/24 06:53:06;;;;;;;6.72;2.25;;;;;;;;;;5069691;28;20028;-70
2022/04/24 06:55:34;;;;;;;8.23;1.60;;;;;;;;;;5070068;28;20056;-71
2022/04/24 06:58:00;;;;;;;6.82;1.58;;;;;;;;;;5069880;28;20029;-71
2022/04/24 07:00:27;;;;;;;7.43;1.45;;;;;;;;;;5069554;28;20512;-70
2022/04/24 07:02:52;;;;;;;7.68;1.50;;;;;;;;;;5069683;28;20089;-71
2022/04/24 07:05:23;;;;;;;8.70;1.33;;;;;;;;;;5069571;28;20020;-70
2022/04/24 07:07:48;;;;;;;7.85;1.45;;;;;;;;;;5069537;28;20032;-69
2022/04/24 07:10:14;;;;;;;7.18;1.60;;;;;;;;;;5070018;28;20108;-70
2022/04/24 07:12:53;;;;;;;8.63;1.40;;;;;;;;;;5069460;28;20109;-72
2022/04/24 07:15:21;;;;;;;4.90;1.00;;;;;;;;;;5070018;28;20168;-72
2022/04/24 07:17:47;;;;;;;10.70;1.10;;;;;;;;;;5069679;28;20054;-72
2022/04/24 07:20:14;;;;;;;7.43;1.48;;;;;;;;;;5069739;28;20102;-70
2022/04/24 07:22:51;;;;;;;4.32;1.10;;;;;;;;;;5069499;28;20108;-69
2022/04/24 07:25:22;;;;;;;6.53;1.30;;;;;;;;;;5071800;28;20056;-70
2022/04/24 07:27:48;;;;;;;8.48;2.33;;;;;;;;;;5055701;28;20045;-69
2022/04/24 07:30:15;;;;;;;5.97;1.60;;;;;;;;;;5073236;28;20135;-69
2022/04/24 07:32:50;;;;;;;7.40;1.48;;;;;;;;;;5073227;28;20023;-70
2022/04/24 07:35:27;;;;;;;11.65;2.63;;;;;;;;;;5073222;28;20021;-70
2022/04/24 07:37:53;;;;;;;8.02;1.70;;;;;;;;;;5073144;28;20112;-70
2022/04/24 07:40:21;;;;;;;9.10;1.55;;;;;;;;;;5072658;28;20127;-70
2022/04/24 07:43:13;;;;;;;8.93;1.50;;;;;;;;;;5073122;28;20058;-69
2022/04/24 07:45:43;;;;;;;10.98;1.40;;;;;;;;;;5068592;28;20043;-70
2022/04/24 07:48:11;;;;;;;7.63;1.40;;;;;;;;;;5073094;28;20492;-70
2022/04/24 07:50:39;;;;;;;5.38;1.27;;;;;;;;;;5073005;28;20032;-70
2022/04/24 07:53:05;;;;;;;5.85;1.30;;;;;;;;;;5072776;28;20071;-70
2022/04/24 07:55:31;;;;;;;8.02;1.15;;;;;;;;;;5073078;28;20028;-70
2022/04/24 07:57:58;;;;;;;5.00;1.00;;;;;;;;;;5072759;28;20051;-69
2022/04/24 08:00:25;;;;;;;5.93;1.20;;;;;;;;;;5072792;28;20437;-69
2022/04/24 08:03:00;;;;;;;5.72;1.20;;;;;;;;;;5072524;28;20103;-73
2022/04/24 08:05:46;;;;;;;8.25;1.63;;;;;;;;;;5072740;28;20039;-71
2022/04/24 08:08:19;;;;;;;5.72;1.25;;;;;;;;;;5070046;28;20021;-71
2022/04/24 08:10:50;;;;;;;8.07;1.50;;;;;;;;;;5072353;28;20050;-72
2022/04/24 08:13:20;;;;;;;6.35;1.00;;;;;;;;;;5062819;28;20020;-73
2022/04/24 08:15:46;;;;;;;7.53;1.35;;;;;;;;;;5070910;28;20029;-72
2022/04/24 08:18:12;;;;;;;8.00;1.33;;;;;;;;;;5071418;28;20112;-72
2022/04/24 08:20:38;;;;;;;5.45;1.10;;;;;;;;;;5072078;28;20111;-70
2022/04/24 08:23:05;;;;;;;6.15;1.30;;;;;;;;;;5071611;28;20036;-71
2022/04/24 08:25:35;;;;;;;7.93;1.42;;;;;;;;;;5072484;28;20075;-77
2022/04/24 08:28:06;;;;;;;8.10;1.10;;;;;;;;;;5070746;28;20024;-71
2022/04/24 08:30:33;;;;;;;6.95;1.40;;;;;;;;;;5070235;28;20270;-78
2022/04/24 08:32:58;;;;;;;6.93;1.17;;;;;;;;;;5072089;28;20107;-76
2022/04/24 08:35:24;;;;;;;8.32;1.20;;;;;;;;;;5071544;28;20111;-70
2022/04/24 08:37:49;;;;;;;8.57;1.20;;;;;;;;;;5072016;28;20028;-71
2022/04/24 08:40:18;;;;;;;6.97;1.10;;;;;;;;;;5071893;28;20041;-77
2022/04/24 08:42:44;;;;;;;11.95;1.35;;;;;;;;;;5071948;28;20487;-70
2022/04/24 08:45:12;;;;;;;8.00;1.50;;;;;;;;;;5072019;28;20216;-74
2022/04/24 08:47:38;;;;;;;7.60;1.30;;;;;;;;;;5072120;28;20040;-75
2022/04/24 08:50:04;;;;;;;8.10;1.30;;;;;;;;;;5071891;28;20493;-74
2022/04/24 08:52:30;;;;;;;8.15;1.23;;;;;;;;;;5071750;28;20142;-73
2022/04/24 08:54:58;;;;;;;7.80;1.48;;;;;;;;;;5071763;28;20389;-73
2022/04/24 08:57:26;;;;;;;6.70;1.30;;;;;;;;;;5071774;28;20016;-75
2022/04/24 08:59:55;;;;;;;9.93;1.67;;;;;;;;;;5071598;28;20120;-76
2022/04/24 09:02:21;;;;;;;11.02;1.88;;;;;;;;;;5071306;28;20511;-75
2022/04/24 09:04:48;;;;;;;8.43;1.05;;;;;;;;;;5071372;28;20040;-71
2022/04/24 09:07:17;;;;;;;10.48;1.45;;;;;;;;;;5069808;28;20052;-77
2022/04/24 09:09:51;;;;;;;11.90;2.08;;;;;;;;;;5070850;28;20032;-73
2022/04/24 09:12:25;;;;;;;8.80;1.67;;;;;;;;;;5071059;28;20030;-74
2022/04/24 09:14:53;;;;;;;9.07;1.40;;;;;;;;;;5071161;28;20032;-73
2022/04/24 09:17:34;;;;;;;12.88;1.70;;;;;;;;;;5071413;28;20108;-75
2022/04/24 09:20:14;;;;;;;11.45;1.60;;;;;;;;;;5071274;28;20074;-73
2022/04/24 09:22:40;;;;;;;7.20;1.57;;;;;;;;;;5070951;28;20338;-74
2022/04/24 09:25:07;;;;;;;10.93;1.52;;;;;;;;;;5070820;28;20455;-74
2022/04/24 09:27:34;;;;;;;6.05;1.30;;;;;;;;;;5070815;28;20085;-71
2022/04/24 09:30:10;;;;;;;11.15;1.85;;;;;;;;;;5070766;28;20039;-73
2022/04/24 09:32:53;;;;;;;10.00;1.50;;;;;;;;;;5070624;28;20071;-71
2022/04/24 09:35:22;;;;;;;11.05;1.80;;;;;;;;;;5070904;28;20082;-71
2022/04/24 09:37:47;;;;;;;10.70;1.55;;;;;;;;;;5070851;28;20028;-73
2022/04/24 09:40:13;;;;;;;9.45;1.60;;;;;;;;;;5070549;28;20280;-70
2022/04/24 09:42:39;;;;;;;11.48;1.77;;;;;;;;;;5070061;28;20071;-71
2022/04/24 09:45:05;;;;;;;10.48;1.60;;;;;;;;;;5070263;28;20025;-71
2022/04/24 09:47:30;;;;;;;10.57;1.42;;;;;;;;;;5070545;28;20111;-74
2022/04/24 09:50:00;;;;;;;12.88;1.73;;;;;;;;;;5064019;28;20108;-75
2022/04/24 09:52:25;;;;;;;8.75;1.23;;;;;;;;;;5070281;28;20046;-70
2022/04/24 09:54:52;;;;;;;8.25;1.52;;;;;;;;;;5070588;28;20100;-70
2022/04/24 09:57:21;;;;;;;7.22;1.52;;;;;;;;;;5067827;28;20074;-79
2022/04/24 09:59:48;;;;;;;9.10;1.60;;;;;;;;;;5068904;28;20104;-75
2022/04/24 10:02:18;;;;;;;7.85;1.40;;;;;;;;;;5070368;28;20032;-76
2022/04/24 10:04:45;;;;;;;10.63;1.60;;;;;;;;;;5070674;28;20050;-69
2022/04/24 10:07:13;;;;;;;11.18;1.65;;;;;;;;;;5067712;28;20071;-72
2022/04/24 10:09:46;;;;;;;8.15;1.35;;;;;;;;;;5070253;28;20024;-76
2022/04/24 10:12:15;;;;;;;10.30;1.50;;;;;;;;;;5069978;28;20025;-70
2022/04/24 10:15:01;;;;;;;8.75;1.75;;;;;;;;;;5069786;28;20017;-76
2022/04/24 10:17:48;;;;;;;11.40;1.67;;;;;;;;;;5069829;28;20078;-69
2022/04/24 10:20:47;;;;;;;8.82;1.75;;;;;;;;;;5069911;28;20476;-70
2022/04/24 10:23:13;;;;;;;10.82;1.45;;;;;;;;;;5069741;28;20024;-70
2022/04/24 10:25:41;;;;;;;8.00;1.48;;;;;;;;;;5070015;28;20128;-73
2022/04/24 10:28:18;;;;;;;8.38;1.33;;;;;;;;;;5069941;28;20111;-75
2022/04/24 10:30:56;;;;;;;8.65;1.50;;;;;;;;;;5069523;28;20051;-74
2022/04/24 10:33:23;;;;;;;14.48;1.75;;;;;;;;;;5069972;28;20465;-79
2022/04/24 10:35:54;;;;;;;9.18;1.45;;;;;;;;;;5069834;28;20032;-74
2022/04/24 10:38:21;;;;;;;;;;;;;;;;;;5070545;28;20078;-72
2022/04/24 10:41:07;;;;;;;13.57;1.60;;;;;;;;;;5070221;28;20371;-72
2022/04/24 10:43:48;;;;;;;9.32;1.35;;;;;;;;;;5069765;28;20107;-74
2022/04/24 10:46:17;;;;;;;12.15;1.75;;;;;;;;;;5056797;28;20021;-73
2022/04/24 10:48:43;;;;;;;8.00;1.50;;;;;;;;;;5069778;28;20031;-72
2022/04/24 10:51:09;;;;;;;12.30;1.80;;;;;;;;;;5069162;28;20032;-69
2022/04/24 10:53:57;;;;;;;7.30;1.13;;;;;;;;;;5069438;28;20021;-72
2022/04/24 10:56:22;;;;;;;5.50;1.30;;;;;;;;;;5069822;28;20070;-73
2022/04/24 10:58:50;;;;;;;8.40;1.48;;;;;;;;;;5073723;28;20360;-72
2022/04/24 11:01:17;;;;;;;12.65;1.83;;;;;;;;;;5073882;28;20025;-72
2022/04/24 11:03:45;;;;;;;11.00;1.63;;;;;;;;;;5073631;28;20031;-74
2022/04/24 11:06:23;;;;;;;8.65;1.75;;;;;;;;;;5073311;28;20139;-74
2022/04/24 11:08:50;;;;;;;13.02;1.70;;;;;;;;;;5073659;28;20116;-74
2022/04/24 11:11:17;;;;;;;12.82;2.13;;;;;;;;;;5073557;28;20118;-72
2022/04/24 11:13:43;;;;;;;11.95;1.77;;;;;;;;;;5073643;28;20029;-71
2022/04/24 11:16:10;;;;;;;9.30;1.42;;;;;;;;;;5073056;28;20100;-73
2022/04/24 11:18:36;;;;;;;10.00;1.77;;;;;;;;;;5074143;28;20031;-69
2022/04/24 11:21:06;;;;;;;11.93;1.63;;;;;;;;;;5071550;28;20480;-73
2022/04/24 11:23:37;;;;;;;10.55;1.80;;;;;;;;;;5070259;28;20028;-74
2022/04/24 11:26:05;;;;;;;8.63;1.75;;;;;;;;;;5069748;28;20289;-71
2022/04/24 11:28:38;;;;;;;13.38;1.85;;;;;;;;;;5070761;28;20020;-72
2022/04/24 11:31:21;;;;;;;12.65;1.77;;;;;;;;;;5071223;28;20104;-70
2022/04/24 11:33:56;;;;;;;9.13;1.65;;;;;;;;;;5071071;28;20345;-71
2022/04/24 11:36:24;;;;;;;10.57;2.28;;;;;;;;;;5072839;28;20020;-70
2022/04/24 11:38:52;;;;;;;12.13;2.10;;;;;;;;;;5072982;28;20017;-70
2022/04/24 11:41:20;;;;;;;14.15;1.90;;;;;;;;;;5072437;28;20056;-70
2022/04/24 11:43:46;;;;;;;14.90;2.15;;;;;;;;;;5073209;28;20032;-70
2022/04/24 11:51:41;;;;;;;7.00;1.60;;;;;;;;;;5072957;28;20055;-70
2022/04/24 11:54:09;;;;;;;8.65;1.80;;;;;;;;;;5072835;28;20396;-70
2022/04/24 11:56:36;;;;;;;9.07;2.13;;;;;;;;;;5072269;28;20063;-70
2022/04/24 11:59:19;;;;;;;8.40;1.45;;;;;;;;;;5067882;28;20025;-70
2022/04/24 12:01:54;;;;;;;8.55;1.40;;;;;;;;;;5071445;28;20086;-70
2022/04/24 12:04:22;;;;;;;10.60;1.70;;;;;;;;;;5071575;28;20028;-70
2022/04/24 12:06:51;;;;;;;7.55;1.48;;;;;;;;;;5071780;28;20029;-70
2022/04/24 12:09:22;;;;;;;9.88;2.15;;;;;;;;;;5071774;28;20673;-70
2022/04/24 12:11:47;;;;;;;10.57;2.08;;;;;;;;;;5072548;28;20024;-70
2022/04/24 12:14:15;;;;;;;7.93;1.52;;;;;;;;;;5072289;28;20028;-70
2022/04/24 12:16:46;;;;;;;11.05;1.55;;;;;;;;;;5072192;28;20020;-70
2022/04/24 12:19:17;;;;;;;10.10;1.85;;;;;;;;;;5072645;28;20298;-71
2022/04/24 12:21:48;;;;;;;;;;;;;;;;;;5072654;28;20120;-70
2022/04/24 12:24:14;;;;;;;13.88;1.92;;;;;;;;;;5072398;28;20363;-71
2022/04/24 12:26:51;;;;;;;9.90;1.73;;;;;;;;;;5072258;28;20055;-70
2022/04/24 12:29:17;;;;;;;12.15;2.22;;;;;;;;;;5072165;28;20059;-71
2022/04/24 12:31:44;;;;;;;15.48;1.90;;;;;;;;;;5071927;28;20078;-71
2022/04/24 12:34:10;;;;;;;13.00;1.60;;;;;;;;;;5072170;28;20508;-70
2022/04/24 12:36:46;;;;;;;10.90;1.65;;;;;;;;;;5072177;28;20021;-71
2022/04/24 12:39:11;;;;;;;12.35;1.80;;;;;;;;;;5072034;28;20031;-71
2022/04/24 12:41:37;;;;;;;13.63;1.75;;;;;;;;;;5071511;28;20040;-71
2022/04/24 12:44:05;;;;;;;11.35;1.67;;;;;;;;;;5071929;28;20099;-72
2022/04/24 12:46:31;;;;;;;10.77;1.67;;;;;;;;;;5071739;28;20119;-71
2022/04/24 12:48:57;;;;;;;13.07;2.00;;;;;;;;;;5071771;28;20035;-71
2022/04/24 12:51:23;;;;;;;6.65;1.50;;;;;;;;;;5071688;28;20514;-71
2022/04/24 12:53:53;;;;;;;6.50;1.40;;;;;;;;;;5072058;28;20024;-71
2022/04/24 12:56:19;;;;;;;9.68;1.63;;;;;;;;;;5071531;28;20032;-71
2022/04/24 12:58:45;;;;;;;8.10;1.60;;;;;;;;;;5071699;28;20093;-71
2022/04/24 13:01:12;;;;;;;8.15;1.33;;;;;;;;;;5071498;28;20048;-71
2022/04/24 13:03:39;;;;;;;8.45;1.42;;;;;;;;;;5071640;28;20024;-70
2022/04/24 13:06:07;;;;;;;10.75;1.63;;;;;;;;;;5071325;28;20469;-72
2022/04/24 13:08:32;;;;;;;6.30;1.40;;;;;;;;;;5071378;28;20040;-70
2022/04/24 13:10:58;;;;;;;8.90;1.27;;;;;;;;;;5053331;28;20040;-71
2022/04/24 13:13:23;;;;;;;8.10;1.50;;;;;;;;;;5071797;28;20449;-73
2022/04/24 13:18:34;;;;;;;6.38;1.23;;;;;;;;;;5070924;28;20058;-71
2022/04/24 13:20:59;;;;;;;7.03;1.60;;;;;;;;;;5069347;28;20028;-72
2022/04/24 13:23:25;;;;;;;7.32;1.48;;;;;;;;;;5069938;28;20062;-73
2022/04/24 13:25:51;;;;;;;6.43;1.45;;;;;;;;;;5070852;28;20028;-74
2022/04/24 13:28:16;;;;;;;6.40;1.33;;;;;;;;;;5070793;28;20082;-72
2022/04/24 13:30:46;;;;;;;7.60;1.30;;;;;;;;;;5070705;28;20043;-75
2022/04/24 13:33:14;;;;;;;3.27;1.17;;;;;;;;;;5071215;28;20172;-75
2022/04/24 13:35:39;;;;;;;12.13;1.50;;;;;;;;;;5070935;28;20427;-74
2022/04/24 13:38:20;;;;;;;10.18;1.45;;;;;;;;;;5070995;28;20035;-72
2022/04/24 13:40:49;;;;;;;10.95;1.52;;;;;;;;;;5069170;28;20040;-70
2022/04/24 13:43:16;;;;;;;8.02;1.40;;;;;;;;;;5070596;28;20570;-74
2022/04/24 13:45:41;;;;;;;11.52;1.60;;;;;;;;;;5077863;28;20028;-71
2022/04/24 13:48:07;;;;;;;12.32;1.75;;;;;;;;;;5073012;28;20024;-71
2022/04/24 13:50:35;;;;;;;9.27;1.30;;;;;;;;;;5077971;28;20389;-73
2022/04/24 13:53:01;;;;;;;6.70;1.63;;;;;;;;;;5070611;28;20077;-72
2022/04/24 13:55:29;;;;;;;13.43;1.90;;;;;;;;;;5071101;28;20407;-74
2022/04/24 13:57:56;;;;;;;8.68;1.73;;;;;;;;;;5070528;28;20032;-72
2022/04/24 14:00:23;;;;;;;10.82;1.80;;;;;;;;;;5070500;28;20032;-72
2022/04/24 14:02:50;;;;;;;8.70;1.67;;;;;;;;;;5070695;28;20033;-75
2022/04/24 14:05:16;;;;;;;7.85;1.70;;;;;;;;;;5070280;28;20439;-71
2022/04/24 14:07:41;;;;;;;5.03;1.40;;;;;;;;;;5070432;28;20028;-70
2022/04/24 14:10:07;;;;;;;7.85;1.83;;;;;;;;;;5070546;28;20232;-73
2022/04/24 14:12:34;;;;;;;6.03;1.58;;;;;;;;;;5071506;28;20029;-76
2022/04/24 14:14:59;;;;;;;10.50;1.92;;;;;;;;;;5071013;28;20025;-72
2022/04/24 14:17:25;;;;;;;10.23;2.00;;;;;;;;;;5071042;28;20083;-71
2022/04/24 14:19:52;;;;;;;4.88;1.40;;;;;;;;;;5070923;28;20024;-75
2022/04/24 14:22:17;;;;;;;9.50;1.80;;;;;;;;;;5070118;28;20043;-75
2022/04/24 14:24:43;;;;;;;5.88;1.40;;;;;;;;;;5070509;28;20467;-75
2022/04/24 14:27:08;;;;;;;6.03;1.60;;;;;;;;;;5070568;28;20053;-72
2022/04/24 14:29:34;;;;;;;6.03;1.40;;;;;;;;;;5070099;28;20028;-71
2022/04/24 14:31:59;;;;;;;6.32;1.30;;;;;;;;;;5070588;28;20032;-76
2022/04/24 14:34:25;;;;;;;5.93;1.10;;;;;;;;;;5072047;28;20024;-76
2022/04/24 14:36:51;;;;;;;4.78;1.10;;;;;;;;;;5069561;28;20041;-75
2022/04/24 14:39:16;;;;;;;3.88;1.00;;;;;;;;;;5069765;28;20031;-70
2022/04/24 14:41:45;;;;;;;6.18;1.20;;;;;;;;;;5070135;28;20411;-72
2022/04/24 14:44:11;;;;;;;4.10;1.15;;;;;;;;;;5043157;28;20281;-75
2022/04/24 14:57:33;;;;;;;5.65;1.33;;;;;;;;;;5069382;28;20035;-74
2022/04/24 14:59:59;;;;;;;6.00;1.33;;;;;;;;;;5060309;28;20025;-71